Time;durP1;ratioP1;P1;durP2;ratioP2;P2;SDS_P1;SDS_P2;PMS_P1;PMS_P2;Temp;Humidity;BMP_temperature;BMP_pressure;BME280_temperature;BME280_humidity;BME280_pressure;Samples;Min_cycle;Max_cycle;Signal;HPM_P1;HPM_P2
2021/07/01 00:01:04;;;;;;;0.30;0.30;;;14.80;78.90;;;;;;5083896;27;20036;-66
2021/07/01 00:03:29;;;;;;;0.40;0.30;;;14.70;78.90;;;;;;5079575;27;20040;-66
2021/07/01 00:05:55;;;;;;;0.20;0.20;;;14.70;78.90;;;;;;5076904;27;20043;-65
2021/07/01 00:08:21;;;;;;;0.35;0.28;;;14.70;79.00;;;;;;5078751;28;20103;-66
2021/07/01 00:10:47;;;;;;;0.35;0.30;;;14.70;79.10;;;;;;5074040;27;22514;-65
2021/07/01 00:13:12;;;;;;;0.20;0.20;;;14.70;79.10;;;;;;5081441;28;20503;-65
2021/07/01 00:15:39;;;;;;;0.20;0.20;;;14.70;79.30;;;;;;5084875;28;20060;-66
2021/07/01 00:18:05;;;;;;;0.40;0.25;;;14.70;79.40;;;;;;5081388;28;20039;-66
2021/07/01 00:20:31;;;;;;;2.50;0.30;;;14.70;79.40;;;;;;5075885;27;20028;-65
2021/07/01 00:22:57;;;;;;;0.20;0.20;;;14.70;80.30;;;;;;5076236;28;20056;-65
2021/07/01 00:25:23;;;;;;;0.40;0.40;;;14.70;79.50;;;;;;5077275;27;20127;-66
2021/07/01 00:27:49;;;;;;;0.30;0.28;;;14.70;79.50;;;;;;5076411;28;20040;-65
2021/07/01 00:30:17;;;;;;;1.27;0.40;;;14.60;79.50;;;;;;5073930;28;20059;-65
2021/07/01 00:32:43;;;;;;;2.13;0.40;;;14.60;79.80;;;;;;5094545;27;20517;-64
2021/07/01 00:35:09;;;;;;;0.43;0.30;;;14.60;79.70;;;;;;5079866;28;20531;-65
2021/07/01 00:37:35;;;;;;;1.80;0.40;;;14.60;79.60;;;;;;5084384;27;20039;-66
2021/07/01 00:40:04;;;;;;;0.30;0.30;;;14.60;79.60;;;;;;5076348;28;20047;-65
2021/07/01 00:42:29;;;;;;;1.55;0.40;;;14.60;79.80;;;;;;5073263;28;20066;-65
2021/07/01 00:44:55;;;;;;;1.60;0.38;;;14.60;79.70;;;;;;5077743;27;20043;-65
2021/07/01 00:47:21;;;;;;;0.30;0.30;;;14.60;79.60;;;;;;5079284;28;20044;-64
2021/07/01 00:49:47;;;;;;;1.75;0.40;;;14.60;79.60;;;;;;5075654;28;20089;-65
2021/07/01 00:52:13;;;;;;;0.38;0.38;;;14.60;79.90;;;;;;5079338;28;20044;-65
2021/07/01 00:54:39;;;;;;;0.40;0.38;;;14.60;80.00;;;;;;5080822;27;20029;-65
2021/07/01 00:57:11;;;;;;;0.40;0.40;;;14.60;80.30;;;;;;5086116;27;20093;-64
2021/07/01 00:59:38;;;;;;;1.35;0.50;;;14.60;80.80;;;;;;5076414;28;20050;-65
2021/07/01 01:02:07;;;;;;;0.80;0.50;;;14.60;80.70;;;;;;5074949;28;20044;-65
2021/07/01 01:04:34;;;;;;;1.02;0.70;;;14.60;81.00;;;;;;5081933;27;20067;-65
2021/07/01 01:07:01;;;;;;;1.27;0.40;;;14.60;80.80;;;;;;5097119;27;20028;-65
2021/07/01 01:09:27;;;;;;;0.40;0.40;;;14.70;80.90;;;;;;5083368;28;20031;-66
2021/07/01 01:11:52;;;;;;;0.68;0.50;;;14.70;81.00;;;;;;5084969;28;20032;-65
2021/07/01 01:14:18;;;;;;;1.08;0.40;;;14.70;81.20;;;;;;5085143;28;20040;-65
2021/07/01 01:16:43;;;;;;;1.45;0.40;;;14.60;81.20;;;;;;5078154;27;20690;-66
2021/07/01 01:19:09;;;;;;;1.20;0.40;;;14.70;81.30;;;;;;5080072;28;20063;-66
2021/07/01 01:21:36;;;;;;;0.90;0.55;;;14.70;81.30;;;;;;5086634;27;20162;-65
2021/07/01 01:24:04;;;;;;;0.80;0.50;;;14.70;81.40;;;;;;5084511;28;20036;-65
2021/07/01 01:26:30;;;;;;;0.55;0.40;;;14.70;81.40;;;;;;5086087;27;20582;-66
2021/07/01 01:28:56;;;;;;;0.55;0.30;;;14.70;81.40;;;;;;5086433;27;20040;-66
2021/07/01 01:31:22;;;;;;;0.40;0.40;;;14.80;81.50;;;;;;5086887;28;20043;-65
2021/07/01 01:33:50;;;;;;;0.40;0.40;;;14.80;81.30;;;;;;5083830;28;20032;-65
2021/07/01 01:36:16;;;;;;;3.80;0.60;;;14.80;81.30;;;;;;5083872;28;20043;-66
2021/07/01 01:38:42;;;;;;;1.42;0.40;;;14.80;81.20;;;;;;5081570;27;20036;-65
2021/07/01 01:41:08;;;;;;;1.33;0.47;;;14.80;81.40;;;;;;5077706;27;20044;-65
2021/07/01 01:43:33;;;;;;;0.43;0.43;;;14.80;81.50;;;;;;5079756;28;20031;-66
2021/07/01 01:45:59;;;;;;;1.98;0.60;;;14.70;81.40;;;;;;5075751;27;20058;-65
2021/07/01 01:48:25;;;;;;;0.80;0.70;;;14.70;81.50;;;;;;5083589;27;20046;-65
2021/07/01 01:50:50;;;;;;;1.17;0.70;;;14.70;82.40;;;;;;5081031;28;20041;-65
2021/07/01 01:53:16;;;;;;;0.80;0.80;;;14.70;81.50;;;;;;5079153;27;20598;-64
2021/07/01 01:55:42;;;;;;;0.70;0.70;;;14.70;81.50;;;;;;5079405;27;20040;-66
2021/07/01 01:58:08;;;;;;;0.70;0.70;;;14.70;81.60;;;;;;5082814;27;20138;-65
2021/07/01 02:00:34;;;;;;;1.52;0.80;;;14.70;81.50;;;;;;5086662;27;20530;-66
2021/07/01 02:03:00;;;;;;;1.58;1.08;;;14.70;81.50;;;;;;5080803;28;20028;-65
2021/07/01 02:05:27;;;;;;;1.00;0.85;;;14.70;81.50;;;;;;5083264;27;20108;-66
2021/07/01 02:07:53;;;;;;;1.10;1.00;;;14.70;81.30;;;;;;5086831;28;20036;-66
2021/07/01 02:10:25;;;;;;;1.55;1.27;;;14.70;81.30;;;;;;5085170;28;20036;-65
2021/07/01 02:12:51;;;;;;;1.05;1.05;;;14.70;82.40;;;;;;5081523;27;20032;-66
2021/07/01 02:15:23;;;;;;;1.30;1.15;;;14.70;82.20;;;;;;5086471;27;20031;-66
2021/07/01 02:17:50;;;;;;;1.25;1.15;;;14.70;81.50;;;;;;5086195;27;20024;-66
2021/07/01 02:20:18;;;;;;;1.75;0.98;;;14.70;81.50;;;;;;5086788;28;20040;-66
2021/07/01 02:22:45;;;;;;;1.83;1.08;;;14.70;81.50;;;;;;5081362;27;20111;-66
2021/07/01 02:25:11;;;;;;;1.15;1.05;;;14.70;81.50;;;;;;5082275;28;20043;-65
2021/07/01 02:27:38;;;;;;;1.55;1.30;;;14.70;81.50;;;;;;5081118;28;20036;-66
2021/07/01 02:30:07;;;;;;;1.20;1.10;;;14.60;81.40;;;;;;5082370;28;20115;-66
2021/07/01 02:32:32;;;;;;;1.42;1.33;;;14.70;81.50;;;;;;5075684;28;20068;-65
2021/07/01 02:34:58;;;;;;;1.23;1.13;;;14.70;81.40;;;;;;5084993;28;20070;-66
2021/07/01 02:37:24;;;;;;;1.35;1.25;;;14.60;81.30;;;;;;5085950;27;20957;-66
2021/07/01 02:39:50;;;;;;;1.60;1.35;;;14.60;81.40;;;;;;5081346;27;20035;-65
2021/07/01 02:42:16;;;;;;;2.00;1.27;;;14.60;81.50;;;;;;5080120;27;20040;-65
2021/07/01 02:44:42;;;;;;;1.40;1.30;;;14.60;81.40;;;;;;5078259;27;20028;-66
2021/07/01 02:47:07;;;;;;;1.50;1.40;;;14.60;81.30;;;;;;5077377;28;20410;-66
2021/07/01 02:49:34;;;;;;;1.90;1.30;;;14.60;81.50;;;;;;5078836;27;20043;-66
2021/07/01 02:51:59;;;;;;;1.25;1.20;;;14.60;81.50;;;;;;5082411;27;20060;-66
2021/07/01 02:54:25;;;;;;;1.55;1.25;;;14.60;81.50;;;;;;5080797;27;20075;-65
2021/07/01 02:56:51;;;;;;;2.55;1.33;;;14.60;81.50;;;;;;5077787;28;20059;-65
2021/07/01 02:59:18;;;;;;;1.60;1.50;;;14.60;81.50;;;;;;5077993;28;20055;-64
2021/07/01 03:01:44;;;;;;;1.67;1.50;;;14.60;81.70;;;;;;5085238;27;20075;-66
2021/07/01 03:04:10;;;;;;;1.58;1.30;;;14.60;81.60;;;;;;5083270;28;20063;-66
2021/07/01 03:06:37;;;;;;;2.40;1.70;;;14.60;81.80;;;;;;5086085;27;20102;-64
2021/07/01 03:09:04;;;;;;;1.60;1.50;;;14.60;81.90;;;;;;5079305;27;20028;-65
2021/07/01 03:11:29;;;;;;;1.58;1.48;;;14.60;81.90;;;;;;5084278;28;20040;-66
2021/07/01 03:13:55;;;;;;;2.53;1.65;;;14.60;81.90;;;;;;5081180;27;20028;-66
2021/07/01 03:16:21;;;;;;;1.75;1.48;;;14.60;81.90;;;;;;5080810;28;20047;-65
2021/07/01 03:18:47;;;;;;;1.40;1.30;;;14.60;81.80;;;;;;5085929;28;20048;-66
2021/07/01 03:21:13;;;;;;;1.77;1.50;;;14.60;81.90;;;;;;5084906;27;20044;-65
2021/07/01 03:23:38;;;;;;;2.75;1.60;;;14.60;82.70;;;;;;5078282;28;20043;-65
2021/07/01 03:26:04;;;;;;;1.75;1.60;;;14.60;81.90;;;;;;5074239;27;20040;-66
2021/07/01 03:28:30;;;;;;;1.63;1.52;;;14.60;81.90;;;;;;5079422;27;20078;-65
2021/07/01 03:30:56;;;;;;;2.45;1.60;;;14.60;81.90;;;;;;5085034;28;20419;-65
2021/07/01 03:33:21;;;;;;;1.77;1.67;;;14.60;81.90;;;;;;5083788;27;20538;-65
2021/07/01 03:35:47;;;;;;;2.15;1.92;;;14.60;81.90;;;;;;5078139;28;20024;-65
2021/07/01 03:38:13;;;;;;;2.10;1.80;;;14.60;82.00;;;;;;5081008;27;20059;-66
2021/07/01 03:40:38;;;;;;;3.20;1.70;;;14.60;81.90;;;;;;5083591;27;20032;-66
2021/07/01 03:43:04;;;;;;;1.80;1.70;;;14.60;81.90;;;;;;5082838;28;20082;-64
2021/07/01 03:45:29;;;;;;;2.17;1.75;;;14.60;81.90;;;;;;5082953;27;20032;-66
2021/07/01 03:47:55;;;;;;;1.90;1.80;;;14.60;81.90;;;;;;5085089;28;20032;-66
2021/07/01 03:50:21;;;;;;;3.42;2.13;;;14.60;81.90;;;;;;5086765;27;20119;-65
2021/07/01 03:52:46;;;;;;;2.92;2.00;;;14.60;81.90;;;;;;5078421;27;20081;-66
2021/07/01 03:55:13;;;;;;;2.38;1.95;;;14.60;82.00;;;;;;5078782;28;20589;-66
2021/07/01 03:57:38;;;;;;;2.03;1.88;;;14.60;83.10;;;;;;5076953;27;20495;-65
2021/07/01 04:00:06;;;;;;;2.70;2.35;;;14.60;82.30;;;;;;5079626;28;20121;-65
2021/07/01 04:02:32;;;;;;;2.53;2.33;;;14.60;82.40;;;;;;5074574;27;20415;-65
2021/07/01 04:04:58;;;;;;;2.47;2.28;;;14.60;82.40;;;;;;5075894;27;20044;-66
2021/07/01 04:07:23;;;;;;;2.70;2.03;;;14.60;82.30;;;;;;5079996;27;20115;-66
2021/07/01 04:09:49;;;;;;;2.38;2.25;;;14.60;82.40;;;;;;5081641;27;20119;-66
2021/07/01 04:12:15;;;;;;;2.20;2.00;;;14.60;82.40;;;;;;5082953;28;20059;-66
2021/07/01 04:14:40;;;;;;;2.17;2.03;;;14.60;82.40;;;;;;5083114;27;20120;-65
2021/07/01 04:17:06;;;;;;;2.28;2.08;;;14.60;82.40;;;;;;5080155;27;20807;-66
2021/07/01 04:19:32;;;;;;;2.13;2.03;;;14.60;82.40;;;;;;5079238;28;20050;-66
2021/07/01 04:21:57;;;;;;;2.50;2.30;;;14.60;82.60;;;;;;5077810;28;20039;-65
2021/07/01 04:24:23;;;;;;;2.10;2.00;;;14.60;82.60;;;;;;5075972;27;20035;-66
2021/07/01 04:26:49;;;;;;;2.38;2.17;;;14.60;82.60;;;;;;5079471;28;20561;-65
2021/07/01 04:29:14;;;;;;;2.55;2.10;;;14.70;82.60;;;;;;5077318;27;20027;-65
2021/07/01 04:31:40;;;;;;;3.13;2.00;;;14.60;82.60;;;;;;5077353;28;20024;-65
2021/07/01 04:34:07;;;;;;;2.53;2.20;;;14.70;82.70;;;;;;5080976;27;20032;-65
2021/07/01 04:36:33;;;;;;;3.88;2.08;;;14.70;82.70;;;;;;5081790;27;20032;-66
2021/07/01 04:38:59;;;;;;;2.00;1.80;;;14.70;82.70;;;;;;5085228;28;20036;-66
2021/07/01 04:41:24;;;;;;;2.50;2.30;;;14.70;82.70;;;;;;5085087;27;20064;-66
2021/07/01 04:43:50;;;;;;;2.45;2.20;;;14.70;82.70;;;;;;5085940;28;20098;-66
2021/07/01 04:46:15;;;;;;;2.40;2.20;;;14.70;82.70;;;;;;5081831;28;20495;-66
2021/07/01 04:48:42;;;;;;;2.13;2.03;;;14.80;82.80;;;;;;5086036;27;20029;-66
2021/07/01 04:51:08;;;;;;;2.45;2.25;;;14.80;82.80;;;;;;5086172;28;20040;-67
2021/07/01 04:53:34;;;;;;;2.50;2.22;;;14.80;82.70;;;;;;5083562;28;20029;-66
2021/07/01 04:55:59;;;;;;;2.53;2.33;;;14.80;82.70;;;;;;5086334;28;20039;-66
2021/07/01 04:58:25;;;;;;;2.40;2.20;;;14.80;82.60;;;;;;5086541;27;20032;-66
2021/07/01 05:00:50;;;;;;;31.55;16.48;;;14.90;82.70;;;;;;5084656;27;20108;-66
2021/07/01 05:03:16;;;;;;;16.60;8.13;;;14.90;82.90;;;;;;5083535;28;20040;-65
2021/07/01 05:05:42;;;;;;;15.60;11.68;;;14.80;82.90;;;;;;5086411;27;20044;-66
2021/07/01 05:08:07;;;;;;;4.53;4.13;;;14.90;83.00;;;;;;5082126;28;20039;-66
2021/07/01 05:10:34;;;;;;;2.78;2.58;;;14.90;82.90;;;;;;5077202;28;20047;-66
2021/07/01 05:13:00;;;;;;;2.63;2.42;;;14.90;82.80;;;;;;5082608;28;20059;-66
2021/07/01 05:15:26;;;;;;;2.55;2.35;;;14.90;83.60;;;;;;5083461;28;20063;-65
2021/07/01 05:17:51;;;;;;;2.42;2.30;;;14.90;82.90;;;;;;5085028;27;20032;-66
2021/07/01 05:20:17;;;;;;;2.47;2.28;;;14.90;82.90;;;;;;5086199;28;20032;-66
2021/07/01 05:22:43;;;;;;;2.60;2.33;;;14.90;82.90;;;;;;5083570;27;20035;-66
2021/07/01 05:25:10;;;;;;;2.05;1.95;;;14.90;82.80;;;;;;5077634;28;20043;-65
2021/07/01 05:27:36;;;;;;;2.20;2.10;;;15.00;83.00;;;;;;5083991;28;20036;-66
2021/07/01 05:30:02;;;;;;;2.25;2.05;;;15.00;83.00;;;;;;5086215;27;20085;-66
2021/07/01 05:32:28;;;;;;;1.85;1.75;;;15.00;82.90;;;;;;5083951;27;20036;-66
2021/07/01 05:34:53;;;;;;;2.13;2.00;;;15.00;82.90;;;;;;5084695;28;20032;-66
2021/07/01 05:37:19;;;;;;;2.08;1.98;;;15.10;83.00;;;;;;5086919;27;20032;-66
2021/07/01 05:39:45;;;;;;;2.45;2.25;;;15.00;83.10;;;;;;5086652;28;20428;-65
2021/07/01 05:42:10;;;;;;;2.00;1.90;;;15.10;83.10;;;;;;5086706;27;20055;-65
2021/07/01 05:44:36;;;;;;;2.15;1.95;;;15.10;83.00;;;;;;5084392;27;20114;-65
2021/07/01 05:47:03;;;;;;;1.95;1.80;;;15.10;82.90;;;;;;5087411;27;20036;-65
2021/07/01 05:49:30;;;;;;;2.28;2.13;;;15.10;82.90;;;;;;5085819;27;20517;-66
2021/07/01 05:51:59;;;;;;;6.82;6.13;;;15.10;82.80;;;;;;5089641;28;20048;-66
2021/07/01 05:54:53;;;;;;;2.97;2.70;;;15.20;82.80;;;;;;5089000;27;20044;-66
2021/07/01 05:57:19;;;;;;;3.00;2.20;;;15.20;82.80;;;;;;5086208;27;22185;-66
2021/07/01 05:59:45;;;;;;;2.30;1.98;;;15.20;82.70;;;;;;5086431;28;20101;-65
2021/07/01 06:02:10;;;;;;;2.42;2.20;;;15.20;82.70;;;;;;5088710;27;20068;-66
2021/07/01 06:04:37;;;;;;;3.67;2.22;;;15.20;82.70;;;;;;5083667;27;20124;-66
2021/07/01 06:07:03;;;;;;;2.22;2.13;;;15.20;82.70;;;;;;5085919;28;20103;-66
2021/07/01 06:09:29;;;;;;;2.00;1.90;;;15.20;82.90;;;;;;5089340;27;20124;-66
2021/07/01 06:11:57;;;;;;;2.00;1.90;;;15.30;82.90;;;;;;5086362;27;20032;-66
2021/07/01 06:14:24;;;;;;;2.50;2.30;;;15.30;83.10;;;;;;5085037;27;20553;-66
2021/07/01 06:16:55;;;;;;;2.00;1.90;;;15.30;83.10;;;;;;5089656;27;20028;-66
2021/07/01 06:19:21;;;;;;;2.40;2.20;;;15.30;83.10;;;;;;5086413;28;20519;-66
2021/07/01 06:21:49;;;;;;;2.58;2.38;;;15.40;82.90;;;;;;5085908;27;20133;-66
2021/07/01 06:24:16;;;;;;;2.63;2.42;;;15.40;82.90;;;;;;5088209;27;20047;-66
2021/07/01 06:26:44;;;;;;;2.53;2.33;;;15.40;83.00;;;;;;5088180;27;22356;-66
2021/07/01 06:29:11;;;;;;;2.25;2.15;;;15.50;82.90;;;;;;5088376;27;20032;-66
2021/07/01 06:31:38;;;;;;;3.25;2.17;;;15.50;82.80;;;;;;5087050;27;20032;-66
2021/07/01 06:34:04;;;;;;;2.60;2.40;;;15.50;82.80;;;;;;5085934;27;20036;-66
2021/07/01 06:36:31;;;;;;;2.25;2.13;;;15.60;83.70;;;;;;5086877;27;20032;-66
2021/07/01 06:39:01;;;;;;;3.53;2.20;;;15.60;82.90;;;;;;5080052;28;20121;-66
2021/07/01 06:41:28;;;;;;;2.75;2.55;;;15.60;82.70;;;;;;5085060;27;20036;-66
2021/07/01 06:43:55;;;;;;;3.15;2.88;;;15.60;82.40;;;;;;5088226;28;20086;-66
2021/07/01 06:46:25;;;;;;;4.32;3.97;;;15.60;82.50;;;;;;5085647;27;20121;-66
2021/07/01 06:48:53;;;;;;;3.55;3.25;;;15.60;82.50;;;;;;5088006;28;20487;-67
2021/07/01 06:51:19;;;;;;;4.47;4.07;;;15.60;82.60;;;;;;5082181;28;20577;-66
2021/07/01 06:53:46;;;;;;;3.63;3.33;;;15.70;82.50;;;;;;5088148;27;20036;-65
2021/07/01 06:56:12;;;;;;;6.63;4.82;;;15.70;82.60;;;;;;5089665;28;20032;-66
2021/07/01 06:58:43;;;;;;;2.30;2.10;;;15.70;81.90;;;;;;5087744;27;20577;-66
2021/07/01 07:01:10;;;;;;;2.40;2.20;;;15.70;82.60;;;;;;5086186;27;20108;-66
2021/07/01 07:03:36;;;;;;;4.57;4.18;;;15.80;82.60;;;;;;5080278;28;20503;-66
2021/07/01 07:06:03;;;;;;;3.83;3.50;;;15.80;82.50;;;;;;5082210;28;20062;-65
2021/07/01 07:08:30;;;;;;;2.78;2.50;;;15.80;82.30;;;;;;5088095;27;20032;-66
2021/07/01 07:10:57;;;;;;;3.13;2.83;;;15.80;82.20;;;;;;5087196;28;20118;-66
2021/07/01 07:13:26;;;;;;;2.38;2.10;;;15.90;82.30;;;;;;5084256;27;20056;-66
2021/07/01 07:15:54;;;;;;;3.33;2.92;;;15.90;82.20;;;;;;5083806;28;20032;-66
2021/07/01 07:18:30;;;;;;;2.90;2.70;;;15.90;82.20;;;;;;5086112;27;20055;-65
2021/07/01 07:21:03;;;;;;;4.72;2.40;;;15.90;82.40;;;;;;5081841;27;20663;-66
2021/07/01 07:23:34;;;;;;;2.70;2.50;;;16.00;82.70;;;;;;5086393;28;20205;-66
2021/07/01 07:26:07;;;;;;;3.70;3.30;;;15.90;82.90;;;;;;5088018;27;20118;-66
2021/07/01 07:28:33;;;;;;;3.67;3.35;;;16.00;82.90;;;;;;5086861;27;20119;-66
2021/07/01 07:30:59;;;;;;;4.80;4.18;;;16.10;83.00;;;;;;5084666;28;20063;-66
2021/07/01 07:33:27;;;;;;;3.05;2.78;;;16.10;82.90;;;;;;5087576;27;20697;-66
2021/07/01 07:35:53;;;;;;;2.63;2.42;;;16.20;83.10;;;;;;5085929;28;20036;-66
2021/07/01 07:38:24;;;;;;;3.10;2.88;;;16.30;82.70;;;;;;5088200;27;20400;-66
2021/07/01 07:40:50;;;;;;;8.15;6.63;;;16.30;82.50;;;;;;5086024;28;20032;-66
2021/07/01 07:43:18;;;;;;;4.38;3.15;;;16.40;82.40;;;;;;5077334;28;20127;-66
2021/07/01 07:45:43;;;;;;;4.22;3.83;;;16.50;82.40;;;;;;5086556;27;20582;-67
2021/07/01 07:48:09;;;;;;;4.30;3.90;;;16.60;82.40;;;;;;5085386;28;20471;-66
2021/07/01 07:50:37;;;;;;;5.28;4.07;;;16.60;82.40;;;;;;5087055;27;20105;-66
2021/07/01 07:53:06;;;;;;;3.20;2.90;;;16.70;82.60;;;;;;5095407;27;20444;-66
2021/07/01 07:55:34;;;;;;;9.00;8.02;;;16.70;82.50;;;;;;5084672;28;20032;-66
2021/07/01 07:58:04;;;;;;;4.57;3.10;;;16.80;82.40;;;;;;5086936;27;20024;-66
2021/07/01 08:00:29;;;;;;;3.60;2.58;;;16.90;82.70;;;;;;5087932;27;20032;-66
2021/07/01 08:03:15;;;;;;;4.10;3.80;;;16.90;81.50;;;;;;5086020;28;20048;-67
2021/07/01 08:05:42;;;;;;;4.65;2.55;;;17.00;81.00;;;;;;5083437;27;20492;-66
2021/07/01 08:08:12;;;;;;;3.28;2.20;;;17.10;80.90;;;;;;5085124;28;20428;-67
2021/07/01 08:10:39;;;;;;;2.58;2.38;;;17.10;80.20;;;;;;5083286;27;20078;-66
2021/07/01 08:13:07;;;;;;;2.33;2.13;;;17.10;79.70;;;;;;5085178;27;20052;-65
2021/07/01 08:15:38;;;;;;;3.03;2.30;;;17.20;79.30;;;;;;5085764;28;20093;-67
2021/07/01 08:18:06;;;;;;;3.30;3.00;;;17.20;79.70;;;;;;5085510;27;20036;-68
2021/07/01 08:20:32;;;;;;;3.30;2.40;;;17.30;79.80;;;;;;5085945;27;20036;-67
2021/07/01 08:22:58;;;;;;;4.20;3.58;;;17.30;79.80;;;;;;5085966;28;20089;-66
2021/07/01 08:25:25;;;;;;;4.32;3.70;;;17.40;79.40;;;;;;5089075;27;20484;-66
2021/07/01 08:27:53;;;;;;;3.20;2.90;;;17.40;78.90;;;;;;5086907;28;20040;-67
2021/07/01 08:30:22;;;;;;;2.28;2.08;;;17.50;78.70;;;;;;5082565;27;20787;-67
2021/07/01 08:32:53;;;;;;;2.67;1.88;;;17.50;78.40;;;;;;5084316;27;20032;-66
2021/07/01 08:35:22;;;;;;;3.05;2.60;;;17.50;78.20;;;;;;5086781;28;20028;-67
2021/07/01 08:37:50;;;;;;;2.63;2.38;;;17.50;77.90;;;;;;5086794;27;20047;-67
2021/07/01 08:40:17;;;;;;;2.60;2.30;;;17.50;77.60;;;;;;5102908;27;20036;-67
2021/07/01 08:42:44;;;;;;;2.60;2.40;;;17.50;77.20;;;;;;5081514;27;20059;-67
2021/07/01 08:45:13;;;;;;;2.15;2.05;;;17.50;77.10;;;;;;5099524;27;20527;-66
2021/07/01 08:47:40;;;;;;;3.05;2.15;;;17.50;77.20;;;;;;5085018;28;20491;-67
2021/07/01 08:50:12;;;;;;;5.32;2.13;;;17.50;77.40;;;;;;5085950;27;20040;-66
2021/07/01 08:53:10;;;;;;;3.92;2.20;;;17.50;77.00;;;;;;5082155;27;20028;-67
2021/07/01 08:55:39;;;;;;;2.22;2.03;;;17.50;77.20;;;;;;5087289;28;20499;-66
2021/07/01 08:58:06;;;;;;;2.40;2.20;;;17.50;77.30;;;;;;5085122;27;20038;-67
2021/07/01 09:00:38;;;;;;;6.03;2.50;;;17.50;77.20;;;;;;5085625;27;20293;-66
2021/07/01 09:03:06;;;;;;;2.92;1.85;;;17.50;77.20;;;;;;5086488;28;20291;-66
2021/07/01 09:05:34;;;;;;;2.20;2.00;;;17.50;77.30;;;;;;5085609;27;20044;-67
2021/07/01 09:08:05;;;;;;;4.47;2.10;;;17.50;77.50;;;;;;5081355;28;20032;-67
2021/07/01 09:10:33;;;;;;;1.98;1.77;;;17.50;77.50;;;;;;5080911;27;20100;-66
2021/07/01 09:13:00;;;;;;;1.95;1.85;;;17.50;77.70;;;;;;5100777;27;20102;-67
2021/07/01 09:15:27;;;;;;;2.17;1.98;;;17.50;77.90;;;;;;5079784;27;20123;-66
2021/07/01 09:17:53;;;;;;;1.90;1.80;;;17.50;77.60;;;;;;5089462;27;20032;-67
2021/07/01 09:20:23;;;;;;;2.28;2.03;;;17.40;77.50;;;;;;5088664;28;20028;-67
2021/07/01 09:22:50;;;;;;;3.17;1.77;;;17.40;77.30;;;;;;5087640;28;20797;-67
2021/07/01 09:25:17;;;;;;;2.15;1.80;;;17.40;77.50;;;;;;5088391;27;20040;-67
2021/07/01 09:27:49;;;;;;;2.50;2.30;;;17.40;77.80;;;;;;5089368;28;20044;-67
2021/07/01 09:30:17;;;;;;;2.05;1.95;;;17.50;77.60;;;;;;5090751;27;20033;-68
2021/07/01 09:32:44;;;;;;;2.10;1.90;;;17.40;77.70;;;;;;5088156;27;20422;-66
2021/07/01 09:35:12;;;;;;;2.97;2.05;;;17.40;77.90;;;;;;5087586;28;20047;-67
2021/07/01 09:37:43;;;;;;;3.20;1.88;;;17.40;77.80;;;;;;5088903;27;20032;-67
2021/07/01 09:40:11;;;;;;;1.95;1.85;;;17.40;77.70;;;;;;5090013;28;20086;-67
2021/07/01 09:42:37;;;;;;;2.20;2.00;;;17.50;78.00;;;;;;5103310;27;20043;-66
2021/07/01 09:45:12;;;;;;;2.20;2.00;;;17.50;78.40;;;;;;5088944;27;20035;-66
2021/07/01 09:47:42;;;;;;;2.15;1.95;;;17.50;78.00;;;;;;5088698;28;20056;-67
2021/07/01 09:50:08;;;;;;;2.63;2.42;;;17.60;77.80;;;;;;5081352;28;20039;-67
2021/07/01 09:52:39;;;;;;;2.42;2.22;;;17.60;77.50;;;;;;5087652;27;20043;-66
2021/07/01 09:55:06;;;;;;;3.22;2.10;;;17.60;77.90;;;;;;5089556;28;20519;-67
2021/07/01 09:57:36;;;;;;;2.35;2.15;;;17.60;78.00;;;;;;5088607;27;20625;-67
2021/07/01 10:00:13;;;;;;;2.22;2.05;;;17.70;77.70;;;;;;5089447;28;20055;-66
2021/07/01 10:02:39;;;;;;;3.53;2.47;;;17.70;77.10;;;;;;5087654;27;20043;-66
2021/07/01 10:05:08;;;;;;;2.83;2.63;;;17.70;77.20;;;;;;5088853;27;20036;-66
2021/07/01 10:07:34;;;;;;;2.72;2.53;;;17.80;77.20;;;;;;5102545;27;20034;-67
2021/07/01 10:10:12;;;;;;;2.67;2.25;;;17.80;77.10;;;;;;5088507;27;20103;-67
2021/07/01 10:12:52;;;;;;;3.42;2.38;;;17.90;77.00;;;;;;5084118;27;20119;-66
2021/07/01 10:15:27;;;;;;;2.35;2.15;;;17.90;76.80;;;;;;5086162;28;20582;-66
2021/07/01 10:18:09;;;;;;;2.40;2.20;;;17.90;76.40;;;;;;5087140;27;20040;-67
2021/07/01 10:20:40;;;;;;;3.35;2.25;;;18.00;76.20;;;;;;5087489;27;20036;-66
2021/07/01 10:23:25;;;;;;;2.28;2.08;;;17.90;76.50;;;;;;5083875;28;20043;-66
2021/07/01 10:25:52;;;;;;;;;;;18.00;76.30;;;;;;5088733;27;20077;-67
2021/07/01 10:28:20;;;;;;;2.22;1.90;;;18.00;76.40;;;;;;5085217;28;19912;-67
2021/07/01 10:31:05;;;;;;;2.58;2.38;;;18.00;76.80;;;;;;5103389;28;20100;-66
2021/07/01 10:33:33;;;;;;;2.90;2.45;;;18.00;76.50;;;;;;5088639;27;20039;-68
2021/07/01 10:36:01;;;;;;;2.85;2.40;;;18.10;76.60;;;;;;5088678;28;20031;-66
2021/07/01 10:38:40;;;;;;;2.63;2.20;;;18.10;76.60;;;;;;5085446;27;20035;-67
2021/07/01 10:41:06;;;;;;;2.30;2.10;;;18.10;76.50;;;;;;5087917;27;20085;-66
2021/07/01 10:43:41;;;;;;;3.17;2.50;;;18.10;76.50;;;;;;5087128;28;20039;-66
2021/07/01 10:46:06;;;;;;;3.00;2.08;;;18.10;76.50;;;;;;5085800;27;20055;-67
2021/07/01 10:48:32;;;;;;;4.40;2.45;;;18.10;76.80;;;;;;5087194;27;20495;-66
2021/07/01 10:51:12;;;;;;;2.15;2.00;;;18.20;76.80;;;;;;5089446;28;20040;-66
2021/07/01 10:53:43;;;;;;;2.75;2.00;;;18.20;76.50;;;;;;5078427;28;20116;-67
2021/07/01 10:56:29;;;;;;;2.28;2.08;;;18.30;76.10;;;;;;5088914;28;20115;-67
2021/07/01 10:58:58;;;;;;;2.08;1.88;;;18.40;75.60;;;;;;5084966;28;20583;-66
2021/07/01 11:01:30;;;;;;;3.58;2.10;;;18.40;76.00;;;;;;5087656;27;20047;-66
2021/07/01 11:04:09;;;;;;;1.92;1.83;;;18.50;76.00;;;;;;5086942;28;20081;-67
2021/07/01 11:06:40;;;;;;;2.08;1.98;;;18.50;75.20;;;;;;5084835;27;20562;-66
2021/07/01 11:09:07;;;;;;;1.75;1.65;;;18.60;75.50;;;;;;5083913;28;20070;-66
2021/07/01 11:11:38;;;;;;;2.78;1.85;;;18.60;75.40;;;;;;5087044;28;20036;-66
2021/07/01 11:14:08;;;;;;;2.78;1.95;;;18.70;75.00;;;;;;5086806;27;20024;-66
2021/07/01 11:16:41;;;;;;;2.53;2.33;;;18.70;74.20;;;;;;5085174;27;20036;-66
2021/07/01 11:19:09;;;;;;;2.60;2.30;;;18.70;73.60;;;;;;5095769;27;20035;-67
2021/07/01 11:21:35;;;;;;;2.80;1.98;;;18.70;73.90;;;;;;5083395;27;20081;-66
2021/07/01 11:24:16;;;;;;;2.50;2.30;;;18.70;74.00;;;;;;5085730;28;20068;-68
2021/07/01 11:26:44;;;;;;;2.30;2.20;;;18.70;73.70;;;;;;5085301;27;20060;-67
2021/07/01 11:29:10;;;;;;;2.75;2.55;;;18.70;74.40;;;;;;5086453;27;20043;-68
2021/07/01 11:31:40;;;;;;;2.60;2.40;;;18.70;73.40;;;;;;5087635;28;20040;-67
2021/07/01 11:34:07;;;;;;;2.40;2.20;;;18.60;73.70;;;;;;5087472;27;20025;-67
2021/07/01 11:36:35;;;;;;;2.55;2.35;;;18.60;73.80;;;;;;5101068;27;20032;-66
2021/07/01 11:39:11;;;;;;;2.58;2.38;;;18.60;73.70;;;;;;5087041;27;20419;-66
2021/07/01 11:41:37;;;;;;;2.80;2.60;;;18.50;73.50;;;;;;5086085;27;20047;-68
2021/07/01 11:44:04;;;;;;;3.42;2.40;;;18.50;73.50;;;;;;5080798;28;20024;-68
2021/07/01 11:46:30;;;;;;;2.53;2.33;;;18.50;73.20;;;;;;5083661;27;20043;-67
2021/07/01 11:48:57;;;;;;;2.20;2.10;;;18.50;73.30;;;;;;5088099;27;20035;-67
2021/07/01 11:51:26;;;;;;;2.97;2.20;;;18.40;73.00;;;;;;5086374;28;20518;-67
2021/07/01 11:53:52;;;;;;;2.47;2.28;;;18.40;72.80;;;;;;5083971;28;20028;-67
2021/07/01 11:56:20;;;;;;;2.63;2.25;;;18.30;73.00;;;;;;5084911;28;20694;-67
2021/07/01 11:58:47;;;;;;;3.00;2.80;;;18.30;73.20;;;;;;5086098;27;20036;-67
2021/07/01 12:01:12;;;;;;;3.00;2.70;;;18.30;73.50;;;;;;5086009;27;20044;-66
2021/07/01 12:03:39;;;;;;;2.33;2.13;;;18.30;73.50;;;;;;5087120;28;20499;-66
2021/07/01 12:06:17;;;;;;;2.72;2.42;;;18.30;73.70;;;;;;5086385;27;20471;-67
2021/07/01 12:08:43;;;;;;;2.47;2.28;;;18.20;74.20;;;;;;5085718;27;20168;-67
2021/07/01 12:11:08;;;;;;;2.95;2.40;;;18.30;74.00;;;;;;5084546;28;20044;-67
2021/07/01 12:13:34;;;;;;;2.33;2.05;;;18.30;74.30;;;;;;5081902;28;20036;-66
2021/07/01 12:16:11;;;;;;;2.33;2.13;;;18.30;74.20;;;;;;5087169;28;20077;-67
2021/07/01 12:18:57;;;;;;;2.35;2.17;;;18.30;73.00;;;;;;5084248;28;20129;-67
2021/07/01 12:21:31;;;;;;;4.30;2.17;;;18.30;72.50;;;;;;5084828;27;20135;-67
2021/07/01 12:24:04;;;;;;;2.58;2.38;;;18.30;73.00;;;;;;5086578;28;20068;-67
2021/07/01 12:26:43;;;;;;;2.35;2.15;;;18.20;72.60;;;;;;5085347;27;20032;-66
2021/07/01 12:29:12;;;;;;;2.40;2.20;;;18.30;72.50;;;;;;5082713;27;20433;-68
2021/07/01 12:31:40;;;;;;;2.55;2.35;;;18.30;72.80;;;;;;5083902;27;20070;-67
2021/07/01 12:34:07;;;;;;;2.45;2.25;;;18.30;73.00;;;;;;5078094;28;20464;-68
2021/07/01 12:36:34;;;;;;;2.20;2.00;;;18.30;72.60;;;;;;5086084;27;20392;-67
2021/07/01 12:39:15;;;;;;;2.78;2.40;;;18.30;72.50;;;;;;5087183;28;20035;-67
2021/07/01 12:41:49;;;;;;;2.40;2.20;;;18.30;72.10;;;;;;5100227;27;20037;-68
2021/07/01 12:44:30;;;;;;;2.30;2.03;;;18.30;72.30;;;;;;5100987;27;20039;-67
2021/07/01 12:46:56;;;;;;;1.98;1.88;;;18.30;71.50;;;;;;5082517;28;20098;-66
2021/07/01 12:49:25;;;;;;;2.72;2.20;;;18.40;72.30;;;;;;5088116;27;20032;-68
2021/07/01 12:52:02;;;;;;;3.70;2.30;;;18.30;72.00;;;;;;5090201;28;20040;-67